createdAt,value
2023-05-14T00:01:16.697Z,98933.94
2023-05-14T00:03:43.889Z,98937.28
2023-05-14T00:06:11.285Z,98932.19
2023-05-14T00:08:38.123Z,98937.50
2023-05-14T00:11:05.075Z,98913.69
2023-05-14T00:13:32.327Z,98911.66
2023-05-14T00:15:59.238Z,98918.34
2023-05-14T00:18:26.164Z,98899.75
2023-05-14T00:20:54.944Z,98908.13
2023-05-14T00:23:22.622Z,98904.75
2023-05-14T00:25:49.925Z,98892.78
2023-05-14T00:28:16.852Z,98886.75
2023-05-14T00:30:44.294Z,98901.88
2023-05-14T00:33:11.113Z,98889.53
2023-05-14T00:35:37.993Z,98894.34
2023-05-14T00:38:04.961Z,98895.31
2023-05-14T00:40:31.805Z,98891.41
2023-05-14T00:42:58.784Z,98893.91
2023-05-14T00:45:25.965Z,98887.66
2023-05-14T00:47:54.133Z,98890.25
2023-05-14T00:50:21.654Z,98876.69
2023-05-14T00:52:49.453Z,98884.16
2023-05-14T00:55:16.982Z,98872.16
2023-05-14T00:57:44.317Z,98886.38
2023-05-14T01:00:11.753Z,98882.38
2023-05-14T01:02:38.700Z,98867.31
2023-05-14T01:05:06.862Z,98864.63
2023-05-14T01:08:01.987Z,98881.44
2023-05-14T01:10:55.242Z,98878.84
2023-05-14T01:13:35.030Z,98873.38
2023-05-14T01:16:04.264Z,98872.25
2023-05-14T01:18:32.650Z,98880.16
2023-05-14T01:20:59.580Z,98886.16
2023-05-14T01:23:26.352Z,98882.66
2023-05-14T01:25:53.397Z,98879.31
2023-05-14T01:28:29.680Z,98883.66
2023-05-14T01:31:18.680Z,98882.66
2023-05-14T01:33:48.510Z,98857.53
2023-05-14T01:36:15.683Z,98872.97
2023-05-14T01:38:45.700Z,98888.22
2023-05-14T01:41:13.827Z,98880.78
2023-05-14T01:43:41.421Z,98874.47
2023-05-14T01:46:08.351Z,98876.69
2023-05-14T01:48:35.419Z,98881.22
2023-05-14T01:51:02.640Z,98873.16
2023-05-14T01:53:29.466Z,98864.97
2023-05-14T01:55:56.335Z,98859.59
2023-05-14T01:58:23.216Z,98863.31
2023-05-14T02:00:50.084Z,98862.38
2023-05-14T02:03:16.919Z,98861.72
2023-05-14T02:05:43.770Z,98850.09
2023-05-14T02:08:10.623Z,98869.59
2023-05-14T02:10:37.553Z,98847.13
2023-05-14T02:13:04.442Z,98822.00
2023-05-14T02:15:31.370Z,98845.63
2023-05-14T02:17:58.334Z,98873.16
2023-05-14T02:20:25.321Z,98862.44
2023-05-14T02:22:52.407Z,98877.94
2023-05-14T02:25:19.228Z,98874.63
2023-05-14T02:27:46.580Z,98873.88
2023-05-14T02:30:13.547Z,98878.13
2023-05-14T02:32:40.522Z,98865.22
2023-05-14T02:35:07.956Z,98870.97
2023-05-14T02:37:34.886Z,98869.41
2023-05-14T02:40:01.872Z,98833.59
2023-05-14T02:42:28.686Z,98864.56
2023-05-14T02:44:55.714Z,98861.06
2023-05-14T02:47:22.564Z,98870.97
2023-05-14T02:49:49.423Z,98875.44
2023-05-14T02:52:16.239Z,98876.38
2023-05-14T02:54:43.150Z,98876.28
2023-05-14T02:57:10.117Z,98881.47
2023-05-14T02:59:37.028Z,98875.53
2023-05-14T03:02:04.435Z,98878.13
2023-05-14T03:04:31.949Z,98858.78
2023-05-14T03:06:58.750Z,98869.84
2023-05-14T03:09:25.632Z,98847.50
2023-05-14T03:11:52.434Z,98864.09
2023-05-14T03:14:19.391Z,98847.41
2023-05-14T03:16:46.302Z,98879.25
2023-05-14T03:19:13.316Z,98873.97
2023-05-14T03:21:40.325Z,98867.34
2023-05-14T03:24:07.232Z,98868.84
2023-05-14T03:26:34.165Z,98863.06
2023-05-14T03:29:02.240Z,98874.78
2023-05-14T03:31:29.457Z,98871.44
2023-05-14T03:33:56.346Z,98873.88
2023-05-14T03:36:23.152Z,98872.16
2023-05-14T03:38:49.950Z,98877.28
2023-05-14T03:41:19.302Z,98867.91
2023-05-14T03:43:47.733Z,98871.25
2023-05-14T03:46:14.741Z,98869.41
2023-05-14T03:48:42.925Z,98871.91
2023-05-14T03:51:09.822Z,98865.88
2023-05-14T03:53:36.724Z,98873.50
2023-05-14T03:56:03.784Z,98870.88
2023-05-14T03:58:30.991Z,98862.91
2023-05-14T04:00:57.820Z,98843.28
2023-05-14T04:03:24.906Z,98848.97
2023-05-14T04:05:51.989Z,98870.97
2023-05-14T04:08:18.884Z,98857.44
2023-05-14T04:10:46.294Z,98869.13
2023-05-14T04:13:13.115Z,98863.84
2023-05-14T04:15:39.982Z,98862.91
2023-05-14T04:18:07.004Z,98858.84
2023-05-14T04:20:34.199Z,98857.72
2023-05-14T04:23:01.605Z,98859.50
2023-05-14T04:25:28.451Z,98846.75
2023-05-14T04:27:55.233Z,98859.22
2023-05-14T04:30:22.371Z,98860.81
2023-05-14T04:32:49.467Z,98854.00
2023-05-14T04:35:16.430Z,98856.41
2023-05-14T04:37:44.567Z,98834.13
2023-05-14T04:40:12.678Z,98860.97
2023-05-14T04:42:39.671Z,98845.66
2023-05-14T04:45:07.451Z,98853.09
2023-05-14T04:47:34.876Z,98854.00
2023-05-14T04:50:02.113Z,98839.34
2023-05-14T04:52:28.974Z,98849.38
2023-05-14T04:54:57.029Z,98850.31
2023-05-14T04:57:23.920Z,98859.59
2023-05-14T04:59:50.761Z,98864.13
2023-05-14T05:02:18.823Z,98862.47
2023-05-14T05:04:47.123Z,98855.94
2023-05-14T05:07:14.620Z,98862.75
2023-05-14T05:09:43.028Z,98863.75
2023-05-14T05:12:10.449Z,98860.31
2023-05-14T05:14:37.400Z,98857.13
2023-05-14T05:17:05.895Z,98856.22
2023-05-14T05:19:43.160Z,98863.19
2023-05-14T05:22:13.076Z,98863.84
2023-05-14T05:24:43.128Z,98868.19
2023-05-14T05:27:10.905Z,98864.03
2023-05-14T05:30:07.150Z,98857.34
2023-05-14T05:32:44.090Z,98867.28
2023-05-14T05:35:11.046Z,98838.56
2023-05-14T05:37:37.887Z,98858.66
2023-05-14T05:40:06.242Z,98862.75
2023-05-14T05:42:33.050Z,98860.16
2023-05-14T05:44:59.806Z,98845.84
2023-05-14T05:47:26.630Z,98857.38
2023-05-14T05:49:54.054Z,98861.06
2023-05-14T05:52:20.879Z,98865.25
2023-05-14T05:54:47.662Z,98850.84
2023-05-14T05:57:14.436Z,98860.72
2023-05-14T05:59:41.361Z,98842.78
2023-05-14T06:02:08.208Z,98872.78
2023-05-14T06:04:35.106Z,98862.56
2023-05-14T06:07:01.939Z,98863.31
2023-05-14T06:09:28.711Z,98863.31
2023-05-14T06:11:55.636Z,98867.00
2023-05-14T06:14:22.380Z,98848.53
2023-05-14T06:16:49.193Z,98865.16
2023-05-14T06:19:16.147Z,98852.59
2023-05-14T06:21:42.996Z,98868.69
2023-05-14T06:24:10.186Z,98872.22
2023-05-14T06:26:36.971Z,98871.34
2023-05-14T06:29:03.787Z,98872.22
2023-05-14T06:31:30.639Z,98871.31
2023-05-14T06:33:57.481Z,98865.91
2023-05-14T06:36:24.250Z,98871.09
2023-05-14T06:38:51.067Z,98870.53
2023-05-14T06:41:17.891Z,98868.94
2023-05-14T06:43:44.715Z,98869.03
2023-05-14T06:46:11.484Z,98863.19
2023-05-14T06:48:38.249Z,98862.34
2023-05-14T06:51:05.106Z,98873.31
2023-05-14T06:53:32.071Z,98847.13
2023-05-14T06:55:59.011Z,98868.69
2023-05-14T06:58:25.924Z,98867.47
2023-05-14T07:00:53.092Z,98871.88
2023-05-14T07:03:20.039Z,98860.72
2023-05-14T07:05:48.261Z,98871.66
2023-05-14T07:08:15.340Z,98871.66
2023-05-14T07:10:42.510Z,98870.72
2023-05-14T07:13:09.566Z,98861.28
2023-05-14T07:15:37.229Z,98871.28
2023-05-14T07:18:04.480Z,98864.25
2023-05-14T07:20:32.691Z,98865.28
2023-05-14T07:22:59.749Z,98843.06
2023-05-14T07:25:26.856Z,98827.91
2023-05-14T07:27:53.764Z,98837.13
2023-05-14T07:30:21.068Z,98849.75
2023-05-14T07:32:49.972Z,98854.69
2023-05-14T07:35:17.010Z,98838.63
2023-05-14T07:37:44.633Z,98846.59
2023-05-14T07:40:12.021Z,98841.78
2023-05-14T07:42:38.954Z,98843.44
2023-05-14T07:45:06.724Z,98836.13
2023-05-14T07:47:33.936Z,98851.06
2023-05-14T07:50:01.193Z,98828.59
2023-05-14T07:52:28.333Z,98830.44
2023-05-14T07:54:55.314Z,98846.25
2023-05-14T07:57:22.642Z,98840.94
2023-05-14T07:59:49.622Z,98839.00
2023-05-14T08:02:16.932Z,98821.25
2023-05-14T08:04:46.822Z,98822.66
2023-05-14T08:07:13.862Z,98827.47
2023-05-14T08:09:42.312Z,98811.13
2023-05-14T08:12:10.591Z,98826.91
2023-05-14T08:14:37.635Z,98824.69
2023-05-14T08:17:04.824Z,98826.16
2023-05-14T08:19:32.203Z,98826.63
2023-05-14T08:21:59.156Z,98831.75
2023-05-14T08:24:26.065Z,98836.47
2023-05-14T08:26:53.033Z,98831.91
2023-05-14T08:29:19.959Z,98816.78
2023-05-14T08:31:48.321Z,98824.75
2023-05-14T08:34:15.665Z,98838.00
2023-05-14T08:36:43.155Z,98831.34
2023-05-14T08:39:10.094Z,98828.94
2023-05-14T08:41:37.787Z,98822.34
2023-05-14T08:44:12.917Z,98835.69
2023-05-14T08:46:41.363Z,98833.84
2023-05-14T08:49:30.012Z,98833.09
2023-05-14T08:51:57.490Z,98838.19
2023-05-14T08:54:27.044Z,98824.78
2023-05-14T08:56:55.830Z,98834.25
2023-05-14T08:59:22.731Z,98821.63
2023-05-14T09:01:54.043Z,98809.97
2023-05-14T09:04:24.876Z,98819.03
2023-05-14T09:06:56.302Z,98820.72
2023-05-14T09:09:23.950Z,98810.56
2023-05-14T09:11:53.605Z,98816.25
2023-05-14T09:14:22.612Z,98818.22
2023-05-14T09:16:51.351Z,98812.69
2023-05-14T09:19:19.678Z,98817.56
2023-05-14T09:21:49.100Z,98808.41
2023-05-14T09:24:23.885Z,98815.50
2023-05-14T09:26:58.057Z,98805.25
2023-05-14T09:29:29.347Z,98802.56
2023-05-14T09:31:58.248Z,98783.97
2023-05-14T09:34:27.591Z,98788.19
2023-05-14T09:37:03.576Z,98801.88
2023-05-14T09:39:31.702Z,98794.66
2023-05-14T09:41:58.951Z,98786.22
2023-05-14T09:44:26.427Z,98807.06
2023-05-14T09:46:55.847Z,98807.59
2023-05-14T09:49:23.239Z,98804.09
2023-05-14T09:51:50.946Z,98786.97
2023-05-14T09:54:18.396Z,98795.53
2023-05-14T09:56:45.348Z,98781.34
2023-05-14T09:59:12.480Z,98771.56
2023-05-14T10:01:42.809Z,98785.88
2023-05-14T10:04:11.367Z,98787.63
2023-05-14T10:06:39.524Z,98776.19
2023-05-14T10:09:13.303Z,98760.84
2023-05-14T10:11:49.863Z,98779.84
2023-05-14T10:14:39.002Z,98762.88
2023-05-14T10:17:08.144Z,98770.28
2023-05-14T10:19:36.850Z,98764.53
2023-05-14T10:22:11.421Z,98769.53
2023-05-14T10:24:39.086Z,98766.19
2023-05-14T10:27:06.273Z,98752.66
2023-05-14T10:29:36.497Z,98768.53
2023-05-14T10:32:07.205Z,98764.97
2023-05-14T10:34:44.275Z,98768.19
2023-05-14T10:37:18.904Z,98763.94
2023-05-14T10:40:09.903Z,98755.91
2023-05-14T10:42:43.592Z,98762.66
2023-05-14T10:45:13.790Z,98756.44
2023-05-14T10:47:46.272Z,98753.94
2023-05-14T10:50:15.966Z,98754.03
2023-05-14T10:52:45.244Z,98747.59
2023-05-14T10:55:16.928Z,98744.66
2023-05-14T10:57:46.327Z,98740.59
2023-05-14T11:00:15.192Z,98749.06
2023-05-14T11:02:44.615Z,98751.84
2023-05-14T11:05:15.742Z,98745.63
2023-05-14T11:07:46.850Z,98747.28
2023-05-14T11:10:18.382Z,98739.66
2023-05-14T11:12:48.482Z,98728.63
2023-05-14T11:15:18.769Z,98721.59
2023-05-14T11:17:47.294Z,98725.78
2023-05-14T11:20:15.085Z,98710.31
2023-05-14T11:22:43.801Z,98714.72
2023-05-14T11:25:14.748Z,98710.56
2023-05-14T11:27:44.528Z,98705.28
2023-05-14T11:30:21.882Z,98710.22
2023-05-14T11:32:50.497Z,98704.03
2023-05-14T11:35:18.276Z,98702.53
2023-05-14T11:37:52.245Z,98706.00
2023-05-14T11:40:22.911Z,98702.44
2023-05-14T11:42:53.300Z,98685.47
2023-05-14T11:45:29.912Z,98695.22
2023-05-14T11:47:56.812Z,98703.34
2023-05-14T11:50:23.977Z,98695.47
2023-05-14T11:52:51.210Z,98693.53
2023-05-14T11:55:18.479Z,98690.81
2023-05-14T11:57:45.454Z,98665.09
2023-05-14T12:00:21.450Z,98672.44
2023-05-14T12:02:49.930Z,98671.47
2023-05-14T12:05:17.245Z,98670.31
2023-05-14T12:07:48.009Z,98672.59
2023-05-14T12:10:15.689Z,98668.44
2023-05-14T12:12:48.460Z,98683.66
2023-05-14T12:15:17.109Z,98668.22
2023-05-14T12:17:51.656Z,98671.19
2023-05-14T12:20:19.510Z,98665.94
2023-05-14T12:22:46.648Z,98667.97
2023-05-14T12:25:13.983Z,98665.94
2023-05-14T12:27:41.316Z,98655.38
2023-05-14T12:32:40.965Z,98659.28
2023-05-14T12:35:08.949Z,98656.56
2023-05-14T12:37:37.298Z,98653.47
2023-05-14T12:40:09.201Z,98635.63
2023-05-14T12:42:36.484Z,98641.81
2023-05-14T12:45:07.248Z,98637.88
2023-05-14T12:47:34.614Z,98643.00
2023-05-14T12:50:01.932Z,98634.47
2023-05-14T12:52:37.762Z,98632.53
2023-05-14T12:55:09.873Z,98628.75
2023-05-14T12:57:39.692Z,98634.94
2023-05-14T13:00:12.975Z,98611.63
2023-05-14T13:02:42.751Z,98621.03
2023-05-14T13:05:13.881Z,98619.22
2023-05-14T13:07:41.110Z,98613.53
2023-05-14T13:10:08.760Z,98613.03
2023-05-14T13:12:35.858Z,98608.13
2023-05-14T13:15:02.703Z,98605.91
2023-05-14T13:17:30.362Z,98600.41
2023-05-14T13:19:57.463Z,98607.34
2023-05-14T13:22:24.349Z,98599.97
2023-05-14T13:24:51.301Z,98593.78
2023-05-14T13:27:18.128Z,98589.22
2023-05-14T13:29:45.216Z,98587.66
2023-05-14T13:32:12.100Z,98589.94
2023-05-14T13:34:38.888Z,98587.09
2023-05-14T13:37:05.740Z,98574.97
2023-05-14T13:39:32.878Z,98578.25
2023-05-14T13:41:59.793Z,98572.06
2023-05-14T13:44:27.704Z,98572.63
2023-05-14T13:46:54.619Z,98568.50
2023-05-14T13:49:21.477Z,98563.34
2023-05-14T13:51:48.501Z,98558.81
2023-05-14T13:54:15.482Z,98553.19
2023-05-14T13:56:42.312Z,98531.78
2023-05-14T13:59:09.293Z,98534.84
2023-05-14T14:01:36.463Z,98547.19
2023-05-14T14:04:03.432Z,98547.53
2023-05-14T14:06:34.532Z,98548.81
2023-05-14T14:09:01.808Z,98553.06
2023-05-14T14:11:28.850Z,98536.91
2023-05-14T14:13:55.748Z,98540.25
2023-05-14T14:16:22.836Z,98536.16
2023-05-14T14:18:49.853Z,98528.75
2023-05-14T14:21:18.370Z,98540.31
2023-05-14T14:23:48.875Z,98515.91
2023-05-14T14:26:15.998Z,98520.13
2023-05-14T14:28:43.063Z,98511.28
2023-05-14T14:31:10.546Z,98519.53
2023-05-14T14:33:37.513Z,98521.50
2023-05-14T14:36:05.846Z,98526.50
2023-05-14T14:38:32.856Z,98536.19
2023-05-14T14:41:03.209Z,98522.16
2023-05-14T14:43:29.978Z,98521.03
2023-05-14T14:45:56.826Z,98508.59
2023-05-14T14:48:41.166Z,98529.81
2023-05-14T14:51:08.899Z,98514.78
2023-05-14T14:53:36.884Z,98529.44
2023-05-14T14:56:04.170Z,98532.06
2023-05-14T14:58:31.291Z,98524.63
2023-05-14T15:00:58.645Z,98522.66
2023-05-14T15:03:26.477Z,98528.75
2023-05-14T15:05:53.869Z,98524.34
2023-05-14T15:08:25.286Z,98524.69
2023-05-14T15:10:52.222Z,98521.53
2023-05-14T15:13:19.580Z,98516.41
2023-05-14T15:15:47.138Z,98515.72
2023-05-14T15:18:14.104Z,98525.91
2023-05-14T15:20:41.102Z,98514.59
2023-05-14T15:23:08.143Z,98524.28
2023-05-14T15:25:35.804Z,98519.59
2023-05-14T15:28:03.002Z,98520.66
2023-05-14T15:30:30.969Z,98506.44
2023-05-14T15:32:57.853Z,98511.53
2023-05-14T15:35:24.961Z,98497.63
2023-05-14T15:37:55.153Z,98511.84
2023-05-14T15:40:22.069Z,98517.31
2023-05-14T15:42:48.980Z,98502.94
2023-05-14T15:45:15.823Z,98521.88
2023-05-14T15:47:44.919Z,98513.78
2023-05-14T15:50:12.140Z,98516.78
2023-05-14T15:52:39.567Z,98525.19
2023-05-14T15:55:07.344Z,98523.66
2023-05-14T15:57:34.761Z,98527.53
2023-05-14T16:00:02.121Z,98525.03
2023-05-14T16:02:30.469Z,98526.66
2023-05-14T16:04:57.494Z,98523.34
2023-05-14T16:07:24.358Z,98520.72
2023-05-14T16:09:51.737Z,98529.84
2023-05-14T16:12:18.773Z,98527.56
2023-05-14T16:14:45.806Z,98524.66
2023-05-14T16:17:12.932Z,98511.56
2023-05-14T16:19:40.344Z,98517.06
2023-05-14T16:22:07.512Z,98515.19
2023-05-14T16:24:34.505Z,98523.59
2023-05-14T16:27:01.437Z,98520.97
2023-05-14T16:29:28.364Z,98527.41
2023-05-14T16:31:55.338Z,98525.09
2023-05-14T16:34:22.490Z,98527.72
2023-05-14T16:36:50.790Z,98526.25
2023-05-14T16:39:18.004Z,98524.34
2023-05-14T16:41:44.846Z,98528.56
2023-05-14T16:44:11.665Z,98519.72
2023-05-14T16:46:38.553Z,98528.31
2023-05-14T16:49:05.557Z,98527.72
2023-05-14T16:51:32.887Z,98518.66
2023-05-14T16:53:59.822Z,98527.81
2023-05-14T16:56:27.052Z,98515.19
2023-05-14T16:58:54.025Z,98514.50
2023-05-14T17:01:21.057Z,98526.25
2023-05-14T17:03:48.125Z,98519.25
2023-05-14T17:06:14.937Z,98516.63
2023-05-14T17:08:42.341Z,98518.41
2023-05-14T17:11:09.208Z,98518.78
2023-05-14T17:13:35.958Z,98512.84
2023-05-14T17:16:03.076Z,98518.22
2023-05-14T17:18:30.106Z,98528.31
2023-05-14T17:20:58.752Z,98521.41
2023-05-14T17:23:25.697Z,98526.25
2023-05-14T17:25:52.589Z,98524.72
2023-05-14T17:28:19.836Z,98527.31
2023-05-14T17:30:46.598Z,98523.63
2023-05-14T17:33:13.483Z,98529.84
2023-05-14T17:35:43.702Z,98527.47
2023-05-14T17:38:10.629Z,98519.56
2023-05-14T17:40:37.439Z,98534.44
2023-05-14T17:43:04.318Z,98531.50
2023-05-14T17:45:39.277Z,98528.75
2023-05-14T17:48:13.719Z,98537.81
2023-05-14T17:50:40.695Z,98538.19
2023-05-14T17:53:07.509Z,98532.50
2023-05-14T17:55:39.850Z,98537.75
2023-05-14T17:58:06.651Z,98543.22
2023-05-14T18:00:33.467Z,98546.09
2023-05-14T18:03:00.456Z,98529.00
2023-05-14T18:05:29.761Z,98546.72
2023-05-14T18:07:57.975Z,98539.00
2023-05-14T18:10:25.461Z,98545.31
2023-05-14T18:12:52.421Z,98549.00
2023-05-14T18:15:22.041Z,98543.31
2023-05-14T18:17:49.071Z,98552.47
2023-05-14T18:20:16.008Z,98547.63
2023-05-14T18:22:42.762Z,98558.56
2023-05-14T18:25:09.835Z,98558.81
2023-05-14T18:27:39.470Z,98554.09
2023-05-14T18:30:07.359Z,98556.19
2023-05-14T18:32:34.171Z,98554.81
2023-05-14T18:35:01.087Z,98557.88
2023-05-14T18:37:28.146Z,98559.22
2023-05-14T18:39:54.956Z,98552.31
2023-05-14T18:42:21.917Z,98557.94
2023-05-14T18:44:48.751Z,98560.06
2023-05-14T18:47:15.720Z,98550.31
2023-05-14T18:49:42.644Z,98557.44
2023-05-14T18:52:09.537Z,98531.31
2023-05-14T18:54:36.306Z,98561.63
2023-05-14T18:57:03.146Z,98565.06
2023-05-14T18:59:29.992Z,98567.94
2023-05-14T19:01:56.949Z,98568.06
2023-05-14T19:04:24.180Z,98569.09
2023-05-14T19:06:51.644Z,98575.03
2023-05-14T19:09:21.024Z,98577.16
2023-05-14T19:11:48.334Z,98568.34
2023-05-14T19:14:15.185Z,98571.72
2023-05-14T19:16:42.035Z,98584.78
2023-05-14T19:19:09.119Z,98592.69
2023-05-14T19:21:36.161Z,98583.78
2023-05-14T19:24:04.266Z,98590.16
2023-05-14T19:26:31.249Z,98582.56
2023-05-14T19:28:58.654Z,98578.88
2023-05-14T19:31:26.712Z,98582.09
2023-05-14T19:33:54.598Z,98582.78
2023-05-14T19:36:21.674Z,98571.59
2023-05-14T19:38:48.837Z,98580.63
2023-05-14T19:41:15.762Z,98585.75
2023-05-14T19:43:42.705Z,98592.25
2023-05-14T19:46:09.789Z,98577.84
2023-05-14T19:48:36.668Z,98572.63
2023-05-14T19:51:03.590Z,98581.53
2023-05-14T19:53:30.597Z,98590.41
2023-05-14T19:55:58.660Z,98579.84
2023-05-14T19:58:26.517Z,98579.22
2023-05-14T20:00:57.405Z,98576.00
2023-05-14T20:03:27.823Z,98596.44
2023-05-14T20:05:55.772Z,98594.16
2023-05-14T20:08:22.809Z,98598.78
2023-05-14T20:10:49.699Z,98600.47
2023-05-14T20:13:16.579Z,98600.47
2023-05-14T20:15:43.465Z,98591.53
2023-05-14T20:18:10.277Z,98601.63
2023-05-14T20:20:37.372Z,98600.00
2023-05-14T20:23:04.228Z,98605.03
2023-05-14T20:25:32.649Z,98604.22
2023-05-14T20:28:02.266Z,98608.59
2023-05-14T20:30:29.266Z,98602.66
2023-05-14T20:32:56.422Z,98594.13
2023-05-14T20:35:24.413Z,98582.88
2023-05-14T20:37:51.371Z,98591.41
2023-05-14T20:40:18.228Z,98598.06
2023-05-14T20:42:45.377Z,98587.84
2023-05-14T20:45:12.226Z,98588.09
2023-05-14T20:47:40.239Z,98592.81
2023-05-14T20:50:07.833Z,98590.63
2023-05-14T20:52:34.704Z,98587.31
2023-05-14T20:55:02.421Z,98585.63
2023-05-14T20:57:29.361Z,98566.50
2023-05-14T20:59:56.188Z,98589.09
2023-05-14T21:02:23.065Z,98569.00
2023-05-14T21:04:50.448Z,98587.97
2023-05-14T21:07:17.236Z,98599.66
2023-05-14T21:09:46.454Z,98596.34
2023-05-14T21:12:13.276Z,98595.81
2023-05-14T21:14:40.064Z,98594.75
2023-05-14T21:17:06.932Z,98597.59
2023-05-14T21:19:33.971Z,98586.97
2023-05-14T21:22:00.792Z,98598.13
2023-05-14T21:24:27.587Z,98595.50
2023-05-14T21:26:54.431Z,98597.50
2023-05-14T21:29:21.264Z,98597.81
2023-05-14T21:31:48.849Z,98595.31
2023-05-14T21:34:15.675Z,98597.19
2023-05-14T21:36:42.562Z,98605.13
2023-05-14T21:39:09.348Z,98607.50
2023-05-14T21:41:36.095Z,98583.03
2023-05-14T21:44:02.900Z,98604.91
2023-05-14T21:46:30.942Z,98606.97
2023-05-14T21:48:57.852Z,98605.34
2023-05-14T21:51:24.699Z,98595.72
2023-05-14T21:53:51.486Z,98608.22
2023-05-14T21:56:18.255Z,98607.41
2023-05-14T21:58:45.110Z,98602.22
2023-05-14T22:01:11.961Z,98603.13
2023-05-14T22:03:38.907Z,98585.63
2023-05-14T22:06:06.029Z,98602.22
2023-05-14T22:08:32.895Z,98593.88
2023-05-14T22:10:59.783Z,98596.25
2023-05-14T22:13:26.575Z,98600.75
2023-05-14T22:16:01.511Z,98580.34
2023-05-14T22:18:38.896Z,98587.94
2023-05-14T22:21:06.101Z,98590.53
2023-05-14T22:23:32.928Z,98588.84
2023-05-14T22:25:59.890Z,98584.50
2023-05-14T22:28:26.696Z,98585.34
2023-05-14T22:30:53.688Z,98580.13
2023-05-14T22:33:20.484Z,98575.72
2023-05-14T22:35:47.277Z,98572.41
2023-05-14T22:38:14.165Z,98579.50
2023-05-14T22:40:41.085Z,98577.91
2023-05-14T22:43:07.983Z,98567.72
2023-05-14T22:45:34.931Z,98570.84
2023-05-14T22:48:02.396Z,98562.31
2023-05-14T22:50:29.284Z,98562.22
2023-05-14T22:52:56.073Z,98564.81
2023-05-14T22:55:23.108Z,98561.47
2023-05-14T22:57:50.162Z,98559.09
2023-05-14T23:00:17.305Z,98549.88
2023-05-14T23:02:44.482Z,98546.03
2023-05-14T23:05:11.428Z,98555.53
2023-05-14T23:07:38.262Z,98556.75
2023-05-14T23:10:06.139Z,98560.41
2023-05-14T23:12:32.932Z,98554.97
2023-05-14T23:14:59.741Z,98558.00
2023-05-14T23:17:26.914Z,98556.84
2023-05-14T23:19:53.822Z,98554.88
2023-05-14T23:22:20.750Z,98554.47
2023-05-14T23:24:47.538Z,98552.06
2023-05-14T23:27:14.472Z,98546.97
2023-05-14T23:29:41.278Z,98551.00
2023-05-14T23:32:08.492Z,98541.88
2023-05-14T23:34:35.400Z,98548.84
2023-05-14T23:37:02.463Z,98542.88
2023-05-14T23:39:29.360Z,98555.59
2023-05-14T23:41:56.122Z,98551.94
2023-05-14T23:44:23.497Z,98555.34
2023-05-14T23:46:50.616Z,98551.09
2023-05-14T23:49:17.458Z,98545.69
2023-05-14T23:51:44.298Z,98549.25
2023-05-14T23:54:11.740Z,98516.50
2023-05-14T23:56:38.795Z,98545.47
2023-05-14T23:59:05.643Z,98542.34
